Time;durP1;ratioP1;P1;durP2;ratioP2;P2;SDS_P1;SDS_P2;PMS_P1;PMS_P2;Temp;Humidity;BMP_temperature;BMP_pressure;BME280_temperature;BME280_humidity;BME280_pressure;Samples;Min_cycle;Max_cycle;Signal;HPM_P1;HPM_P2
2023/06/17 00:01:21;;;;;;;15.38;10.43;;;;;;;18.20;57.12;98912.25;5059550;28;20047;-70
2023/06/17 00:03:46;;;;;;;19.88;11.02;;;;;;;18.16;57.30;98902.03;5060512;28;20056;-68
2023/06/17 00:06:11;;;;;;;13.77;9.55;;;;;;;18.10;57.72;98912.47;5060803;28;20036;-70
2023/06/17 00:08:37;;;;;;;19.40;10.05;;;;;;;18.05;57.33;98914.03;5061130;28;20051;-68
2023/06/17 00:11:02;;;;;;;16.17;10.00;;;;;;;18.01;57.78;98910.00;5060426;28;20036;-69
2023/06/17 00:13:27;;;;;;;19.75;10.43;;;;;;;17.98;58.59;98913.03;5060398;28;20161;-70
2023/06/17 00:15:56;;;;;;;17.90;10.07;;;;;;;17.96;58.81;98913.19;5060454;28;20427;-69
2023/06/17 00:18:26;;;;;;;16.50;10.05;;;;;;;17.96;58.91;98910.50;5060495;28;20047;-66
2023/06/17 00:20:52;;;;;;;18.30;10.35;;;;;;;17.94;59.17;98915.25;5060397;28;20040;-68
2023/06/17 00:23:21;;;;;;;16.55;9.93;;;;;;;17.93;58.75;98918.13;5060273;28;20036;-69
2023/06/17 00:25:47;;;;;;;21.20;9.95;;;;;;;17.89;59.18;98917.63;5060547;28;20055;-71
2023/06/17 00:28:12;;;;;;;18.67;9.38;;;;;;;17.90;59.28;98913.91;5058318;28;20403;-69
2023/06/17 00:30:37;;;;;;;25.05;10.45;;;;;;;17.87;59.46;98918.81;5057234;28;20044;-71
2023/06/17 00:33:03;;;;;;;21.85;11.85;;;;;;;17.87;59.16;98921.50;5057390;28;20074;-70
2023/06/17 00:35:28;;;;;;;16.80;9.70;;;;;;;17.86;59.09;98923.34;5038919;28;20055;-70
2023/06/17 00:37:53;;;;;;;18.80;10.55;;;;;;;17.85;59.31;98916.28;5057656;28;20044;-69
2023/06/17 00:40:18;;;;;;;13.18;9.48;;;;;;;17.84;59.58;98924.53;5058849;28;20454;-68
2023/06/17 00:42:45;;;;;;;17.63;11.18;;;;;;;17.82;59.73;98932.81;5057598;28;20067;-70
2023/06/17 00:45:10;;;;;;;18.95;9.93;;;;;;;17.81;59.99;98935.69;5057308;28;20059;-68
2023/06/17 00:47:39;;;;;;;17.88;11.88;;;;;;;17.80;60.55;98924.06;5039321;28;20055;-68
2023/06/17 00:50:09;;;;;;;18.77;10.80;;;;;;;17.81;60.33;98930.31;5057713;28;20051;-70
2023/06/17 00:52:35;;;;;;;19.10;10.88;;;;;;;17.77;59.84;98930.63;5056768;28;20055;-67
2023/06/17 00:55:00;;;;;;;18.17;9.40;;;;;;;17.76;60.11;98928.94;5057221;28;20047;-70
2023/06/17 00:57:28;;;;;;;18.90;11.05;;;;;;;17.75;59.89;98929.13;5038623;28;20044;-68
2023/06/17 00:59:54;;;;;;;20.63;10.43;;;;;;;17.75;60.49;98927.25;5057331;28;20044;-70
2023/06/17 01:02:19;;;;;;;19.90;10.38;;;;;;;17.72;60.18;98933.00;5056821;28;20446;-70
2023/06/17 01:04:48;;;;;;;18.73;10.85;;;;;;;17.70;60.83;98924.25;5056885;28;20724;-70
2023/06/17 01:07:23;;;;;;;21.35;10.07;;;;;;;17.70;61.01;98934.19;5056379;28;20055;-71
2023/06/17 01:09:56;;;;;;;17.88;10.38;;;;;;;17.66;60.65;98922.91;5056724;28;20445;-69
2023/06/17 01:12:25;;;;;;;17.05;10.60;;;;;;;17.62;60.80;98929.63;5056762;28;20060;-71
2023/06/17 01:14:54;;;;;;;18.08;10.25;;;;;;;17.60;60.50;98933.53;5046475;28;20052;-68
2023/06/17 01:17:19;;;;;;;18.55;8.90;;;;;;;17.53;60.46;98933.34;5056608;28;20048;-69
2023/06/17 01:19:48;;;;;;;16.27;10.13;;;;;;;17.55;61.47;98935.88;5056519;28;20044;-70
2023/06/17 01:22:16;;;;;;;19.55;11.70;;;;;;;17.55;61.62;98934.03;5056877;28;20055;-70
2023/06/17 01:24:43;;;;;;;15.27;10.40;;;;;;;17.54;61.33;98926.94;5055754;28;20047;-71
2023/06/17 01:27:08;;;;;;;16.25;10.05;;;;;;;17.53;61.28;98927.97;5056546;28;20749;-69
2023/06/17 01:29:36;;;;;;;20.85;9.88;;;;;;;17.53;61.57;98933.34;5050357;28;20048;-69
2023/06/17 01:32:02;;;;;;;13.95;9.98;;;;;;;17.55;61.36;98931.31;5053593;28;20042;-70
2023/06/17 01:34:47;;;;;;;13.32;9.25;;;;;;;17.58;61.80;98932.84;5056096;28;20040;-69
2023/06/17 01:37:20;;;;;;;14.43;10.30;;;;;;;17.59;61.71;98921.91;5056182;28;20032;-69
2023/06/17 01:39:47;;;;;;;17.55;10.07;;;;;;;17.60;61.95;98928.13;5052232;28;20050;-69
2023/06/17 01:42:23;;;;;;;13.55;9.20;;;;;;;17.68;62.52;98931.66;5054810;28;20048;-67
2023/06/17 01:44:48;;;;;;;15.63;10.65;;;;;;;17.68;61.93;98937.06;5037745;28;20045;-68
2023/06/17 01:47:14;;;;;;;17.77;9.90;;;;;;;17.73;61.65;98939.22;5054075;28;20055;-67
2023/06/17 01:49:39;;;;;;;13.52;9.25;;;;;;;17.77;62.03;98936.03;5055802;28;20541;-68
2023/06/17 01:52:07;;;;;;;14.73;10.07;;;;;;;17.84;62.08;98935.31;5054559;28;20048;-67
2023/06/17 01:54:33;;;;;;;17.15;10.23;;;;;;;17.90;61.52;98940.03;5054218;28;20051;-67
2023/06/17 01:57:00;;;;;;;14.93;10.15;;;;;;;17.95;61.73;98932.25;5037178;28;20048;-67
2023/06/17 01:59:26;;;;;;;15.93;10.10;;;;;;;18.00;61.37;98932.59;5054351;28;20051;-69
2023/06/17 02:01:51;;;;;;;20.85;10.13;;;;;;;18.03;61.44;98935.78;5037378;28;20054;-69
2023/06/17 02:04:16;;;;;;;19.80;10.35;;;;;;;18.07;61.48;98934.41;5036823;28;20526;-69
2023/06/17 02:06:41;;;;;;;15.45;9.02;;;;;;;18.11;61.59;98937.59;5054574;28;20044;-69
2023/06/17 02:09:07;;;;;;;13.68;10.15;;;;;;;18.16;61.82;98939.78;5037611;28;20055;-71
2023/06/17 02:11:32;;;;;;;19.40;10.40;;;;;;;18.18;61.62;98941.28;5043200;28;20055;-70
2023/06/17 02:13:57;;;;;;;15.55;9.52;;;;;;;18.23;60.96;98943.47;5055347;28;20130;-70
2023/06/17 02:16:23;;;;;;;18.48;10.50;;;;;;;18.28;61.03;98941.09;5053064;28;20048;-71
2023/06/17 02:18:52;;;;;;;18.85;10.27;;;;;;;18.31;60.94;98936.16;5048529;28;20044;-71
2023/06/17 02:21:17;;;;;;;17.73;10.05;;;;;;;18.34;61.06;98938.50;5054650;28;20054;-71
2023/06/17 02:23:45;;;;;;;14.98;10.20;;;;;;;18.41;61.19;98938.63;5054868;28;20036;-73
2023/06/17 02:26:12;;;;;;;15.75;9.82;;;;;;;18.48;60.84;98937.78;5054842;28;20036;-72
2023/06/17 02:28:38;;;;;;;16.42;11.52;;;;;;;18.57;60.79;98943.97;5037025;28;20413;-70
2023/06/17 02:31:03;;;;;;;21.60;9.82;;;;;;;18.66;60.81;98944.78;5054790;28;20040;-71
2023/06/17 02:33:29;;;;;;;20.98;10.00;;;;;;;18.76;60.22;98945.38;5053846;28;20533;-65
2023/06/17 02:35:54;;;;;;;14.68;10.85;;;;;;;18.83;59.71;98943.66;5054554;28;20040;-73
2023/06/17 02:38:20;;;;;;;15.02;10.25;;;;;;;18.92;59.83;98939.03;5020191;28;20048;-74
2023/06/17 02:40:46;;;;;;;19.40;10.32;;;;;;;19.01;59.67;98944.19;5036782;28;20059;-70
2023/06/17 02:43:11;;;;;;;22.42;10.02;;;;;;;19.14;59.62;98943.59;5053672;28;20055;-68
2023/06/17 02:45:36;;;;;;;16.02;10.55;;;;;;;19.28;59.27;98948.22;5054668;28;20042;-67
2023/06/17 02:48:02;;;;;;;27.52;10.65;;;;;;;19.45;59.26;98959.72;5054920;28;20059;-67
2023/06/17 02:50:28;;;;;;;24.40;10.20;;;;;;;19.60;59.15;98947.09;5054876;28;20058;-70
2023/06/17 02:52:55;;;;;;;17.75;11.85;;;;;;;19.71;59.07;98952.06;5035842;28;20048;-67
2023/06/17 02:55:22;;;;;;;17.25;10.20;;;;;;;19.86;58.99;98942.09;5020234;28;20075;-68
2023/06/17 02:57:48;;;;;;;22.27;10.38;;;;;;;20.07;58.70;98951.34;5054828;28;20044;-68
2023/06/17 03:00:13;;;;;;;20.00;11.48;;;;;;;20.25;58.12;98947.22;5036795;28;20044;-68
2023/06/17 03:02:39;;;;;;;21.85;11.73;;;;;;;20.46;57.08;98954.59;5053925;28;20048;-69
2023/06/17 03:05:06;;;;;;;19.80;10.98;;;;;;;20.64;55.74;98949.63;5053607;28;20055;-69
2023/06/17 03:07:35;;;;;;;20.63;10.80;;;;;;;20.82;55.28;98948.34;5053761;28;20051;-76
2023/06/17 03:10:01;;;;;;;19.98;11.25;;;;;;;21.01;55.04;98935.00;5020907;28;20055;-71
2023/06/17 03:12:29;;;;;;;21.88;11.90;;;;;;;21.21;54.59;98943.38;5021486;28;20044;-74
2023/06/17 03:14:54;;;;;;;19.55;11.23;;;;;;;21.37;54.43;98947.66;5053023;28;20047;-75
2023/06/17 03:17:21;;;;;;;19.25;10.45;;;;;;;21.47;54.03;98947.31;5053055;28;20048;-75
2023/06/17 03:19:47;;;;;;;25.67;13.63;;;;;;;21.53;53.62;98950.09;5036800;28;20043;-72
2023/06/17 03:22:13;;;;;;;25.30;11.68;;;;;;;21.60;53.26;98939.28;5045757;28;20044;-72
2023/06/17 03:24:46;;;;;;;19.40;10.93;;;;;;;21.66;52.75;98943.94;5034547;28;20043;-74
2023/06/17 03:27:12;;;;;;;18.58;11.68;;;;;;;21.73;51.71;98948.38;5006683;28;20043;-74
2023/06/17 03:29:37;;;;;;;28.25;11.05;;;;;;;21.79;51.78;98938.59;5036936;28;20040;-74
2023/06/17 03:32:04;;;;;;;20.08;10.77;;;;;;;21.89;51.68;98944.53;5033654;28;20399;-75
2023/06/17 03:34:32;;;;;;;23.42;11.32;;;;;;;21.99;50.94;98945.03;5013829;28;20040;-73
2023/06/17 03:36:57;;;;;;;21.95;11.48;;;;;;;22.12;51.02;98952.44;5036963;28;20043;-75
2023/06/17 03:39:23;;;;;;;23.27;11.90;;;;;;;22.23;49.84;98942.88;5016404;28;20059;-71
2023/06/17 03:41:49;;;;;;;28.15;12.23;;;;;;;22.32;50.04;98938.94;5034342;28;20044;-70
2023/06/17 03:44:14;;;;;;;24.15;11.07;;;;;;;22.43;49.99;98947.34;5016139;28;20044;-71
2023/06/17 03:46:39;;;;;;;21.98;11.15;;;;;;;22.59;49.09;98937.16;5034432;28;20052;-72
2023/06/17 03:49:05;;;;;;;19.38;10.35;;;;;;;22.74;48.57;98938.69;5008370;28;20045;-72
2023/06/17 03:51:31;;;;;;;24.63;11.65;;;;;;;22.88;48.19;98938.75;5036418;28;20063;-70
2023/06/17 03:53:56;;;;;;;33.03;12.10;;;;;;;23.01;47.73;98930.63;5036458;28;20048;-70
2023/06/17 03:56:22;;;;;;;23.55;11.23;;;;;;;23.16;47.88;98936.69;5019607;28;20063;-71
2023/06/17 03:58:47;;;;;;;22.05;11.20;;;;;;;23.30;47.95;98935.69;5053404;28;20048;-71
2023/06/17 04:01:13;;;;;;;19.00;10.48;;;;;;;23.45;47.71;98941.75;5019400;28;20052;-71
2023/06/17 04:03:40;;;;;;;20.38;10.23;;;;;;;23.57;47.22;98931.13;5054196;28;20555;-72
2023/06/17 04:06:06;;;;;;;18.13;10.30;;;;;;;23.71;46.00;98937.38;5056919;28;20048;-72
2023/06/17 04:08:35;;;;;;;16.08;10.00;;;;;;;23.84;45.58;98937.34;5029971;28;20051;-70
2023/06/17 04:11:02;;;;;;;15.93;8.52;;;;;;;23.92;44.58;98939.88;5058253;28;20059;-72
2023/06/17 04:13:27;;;;;;;18.60;9.50;;;;;;;23.98;43.80;98936.28;5039724;28;20036;-72
2023/06/17 04:15:53;;;;;;;22.65;8.65;;;;;;;24.03;43.17;98928.34;5039822;28;20066;-72
2023/06/17 04:18:18;;;;;;;16.20;10.63;;;;;;;24.10;42.95;98942.75;5039997;28;20043;-70
2023/06/17 04:20:44;;;;;;;29.83;19.35;;;;;;;24.18;42.42;98938.94;5040013;28;20048;-70
2023/06/17 04:23:10;;;;;;;15.85;9.07;;;;;;;24.26;41.93;98944.22;5023213;28;20437;-71
2023/06/17 04:25:36;;;;;;;17.02;9.07;;;;;;;24.30;42.31;98937.28;5039509;28;20043;-70
2023/06/17 04:28:07;;;;;;;17.85;8.88;;;;;;;24.35;41.35;98947.53;5039531;28;20048;-71
2023/06/17 04:30:34;;;;;;;14.00;8.00;;;;;;;24.46;41.25;98944.16;5039426;28;20055;-73
2023/06/17 04:33:00;;;;;;;13.93;8.23;;;;;;;24.55;41.31;98940.94;5039146;28;20052;-72
2023/06/17 04:35:27;;;;;;;15.23;8.52;;;;;;;24.66;40.58;98947.59;5056596;28;20044;-71
2023/06/17 04:37:53;;;;;;;12.23;8.05;;;;;;;24.84;40.67;98949.59;5040082;28;20039;-71
2023/06/17 04:40:21;;;;;;;11.95;8.27;;;;;;;25.06;39.88;98961.88;5039336;28;20047;-72
2023/06/17 04:42:48;;;;;;;14.30;7.47;;;;;;;25.36;40.08;98953.94;5022044;28;20048;-73
2023/06/17 04:45:14;;;;;;;13.18;7.97;;;;;;;25.64;39.63;98954.34;5005784;28;20507;-72
2023/06/17 04:47:39;;;;;;;15.55;8.25;;;;;;;25.96;38.75;98954.28;5039132;28;20055;-72
2023/06/17 04:50:05;;;;;;;12.52;7.72;;;;;;;26.28;38.53;98955.88;5038686;28;20066;-72
2023/06/17 04:52:31;;;;;;;12.30;8.27;;;;;;;26.68;37.66;98964.41;5056092;28;20044;-72
2023/06/17 04:54:59;;;;;;;14.77;8.88;;;;;;;27.11;37.30;98969.75;5055853;28;20054;-72
2023/06/17 04:57:25;;;;;;;14.35;8.77;;;;;;;27.49;37.38;98960.34;5055958;28;20039;-72
2023/06/17 04:59:53;;;;;;;12.23;10.05;;;;;;;27.73;36.70;98961.25;5055820;28;20048;-74
2023/06/17 05:02:20;;;;;;;15.45;9.65;;;;;;;27.89;35.61;98959.69;5038943;28;20055;-73
2023/06/17 05:04:46;;;;;;;13.30;8.13;;;;;;;28.11;35.26;98958.00;5038245;28;20044;-72
2023/06/17 05:07:12;;;;;;;16.83;8.80;;;;;;;28.33;34.34;98961.81;5055646;28;20059;-71
2023/06/17 05:09:39;;;;;;;11.63;7.72;;;;;;;28.67;34.03;98962.81;5055392;28;20410;-71
2023/06/17 05:12:04;;;;;;;12.43;8.07;;;;;;;28.96;33.92;98966.47;5056626;28;20044;-71
2023/06/17 05:14:30;;;;;;;16.35;10.93;;;;;;;29.18;34.23;98958.38;5055826;28;20044;-71
2023/06/17 05:16:55;;;;;;;11.90;8.88;;;;;;;29.43;33.89;98967.09;5055545;28;20044;-71
2023/06/17 05:19:21;;;;;;;11.13;7.68;;;;;;;29.67;33.37;98967.78;5038332;28;20608;-72
2023/06/17 05:21:46;;;;;;;16.13;8.75;;;;;;;29.76;32.51;98958.03;5055380;28;20044;-73
2023/06/17 05:24:14;;;;;;;10.82;8.10;;;;;;;29.67;31.72;98962.28;5055222;28;20044;-72
2023/06/17 05:26:40;;;;;;;15.32;7.90;;;;;;;29.74;31.52;98960.19;5055869;28;20062;-73
2023/06/17 05:29:05;;;;;;;10.77;7.55;;;;;;;29.88;31.45;98964.28;5056493;28;20051;-72
2023/06/17 05:31:32;;;;;;;14.90;7.88;;;;;;;30.06;31.15;98959.63;5055311;28;20048;-73
2023/06/17 05:33:58;;;;;;;9.43;7.55;;;;;;;30.23;30.99;98961.25;5037581;28;20048;-72
2023/06/17 05:36:23;;;;;;;12.88;7.75;;;;;;;30.52;30.97;98963.84;5055046;28;20048;-72
2023/06/17 05:38:48;;;;;;;9.38;7.85;;;;;;;30.83;31.44;98960.41;5047961;28;20716;-72
2023/06/17 05:41:13;;;;;;;11.60;7.22;;;;;;;31.24;31.29;98972.75;5037616;28;20506;-73
2023/06/17 05:43:40;;;;;;;15.43;8.40;;;;;;;31.38;30.02;98968.44;5038346;28;20055;-72
2023/06/17 05:46:05;;;;;;;11.38;7.60;;;;;;;31.49;29.11;98972.13;5038106;28;20043;-72
2023/06/17 05:48:30;;;;;;;9.98;7.05;;;;;;;31.66;28.36;98969.28;5037942;28;20055;-73
2023/06/17 05:50:55;;;;;;;11.45;7.50;;;;;;;31.92;28.66;98973.94;5038447;28;20449;-73
2023/06/17 05:53:21;;;;;;;10.73;7.35;;;;;;;32.28;28.17;98961.22;5038086;28;20048;-72
2023/06/17 05:55:46;;;;;;;11.18;7.72;;;;;;;32.77;28.07;98964.53;5020949;28;20095;-72
2023/06/17 05:58:12;;;;;;;7.75;6.47;;;;;;;33.38;27.49;98959.19;5037522;28;20052;-73
2023/06/17 06:00:46;;;;;;;11.05;7.00;;;;;;;33.81;26.28;98957.00;5021060;28;20059;-73
2023/06/17 06:03:11;;;;;;;11.70;6.72;;;;;;;34.09;25.64;98963.88;5055693;28;20383;-72
2023/06/17 06:05:36;;;;;;;10.98;6.80;;;;;;;34.56;25.17;98958.81;5037835;28;20043;-72
2023/06/17 06:08:01;;;;;;;10.50;7.88;;;;;;;35.20;24.71;98962.69;5037705;28;20044;-73
2023/06/17 06:10:28;;;;;;;9.00;6.88;;;;;;;35.59;24.44;98954.38;5055862;28;20044;-72
2023/06/17 06:12:56;;;;;;;10.55;6.72;;;;;;;35.94;23.77;98956.88;5054678;28;20044;-72
2023/06/17 06:15:23;;;;;;;12.38;7.35;;;;;;;36.09;23.20;98958.69;5025749;28;20063;-71
2023/06/17 06:17:48;;;;;;;12.52;7.07;;;;;;;36.40;22.58;98955.59;5034361;28;20041;-71
2023/06/17 06:20:13;;;;;;;13.00;7.13;;;;;;;36.71;22.22;98949.41;5017663;28;20534;-72
2023/06/17 06:22:39;;;;;;;7.78;6.20;;;;;;;37.03;22.29;98956.22;5034431;28;20044;-73
2023/06/17 06:25:05;;;;;;;13.48;7.30;;;;;;;37.45;21.47;98960.91;5000371;28;20059;-72
2023/06/17 06:27:32;;;;;;;10.93;6.53;;;;;;;37.93;21.17;98963.47;5033425;28;20048;-72
2023/06/17 06:29:58;;;;;;;8.20;6.53;;;;;;;38.06;20.30;98962.69;5017637;28;20052;-74
2023/06/17 06:32:23;;;;;;;9.00;6.85;;;;;;;37.77;19.81;98960.97;5034300;28;20064;-73
2023/06/17 06:34:49;;;;;;;8.25;7.00;;;;;;;37.55;20.20;98957.97;5017536;28;20556;-73
2023/06/17 06:37:15;;;;;;;8.15;6.95;;;;;;;37.97;20.56;98958.94;5054330;28;20040;-73
2023/06/17 06:39:42;;;;;;;8.80;7.55;;;;;;;38.73;20.10;98957.53;5019877;28;20047;-74
2023/06/17 06:42:08;;;;;;;10.50;8.18;;;;;;;38.94;19.41;98955.97;5037339;28;20070;-73
2023/06/17 06:44:43;;;;;;;9.30;7.97;;;;;;;38.88;19.17;98957.19;5037026;28;20445;-74
2023/06/17 06:47:08;;;;;;;14.85;7.07;;;;;;;38.88;18.98;98961.94;5054133;28;20040;-74
2023/06/17 06:49:33;;;;;;;7.50;6.70;;;;;;;39.37;18.68;98958.38;5055651;28;20052;-74
2023/06/17 06:51:59;;;;;;;8.80;6.97;;;;;;;39.78;18.27;98967.41;5020733;28;20066;-74
2023/06/17 06:54:24;;;;;;;11.20;6.90;;;;;;;40.18;18.06;98968.31;5039417;28;20106;-73
2023/06/17 06:56:49;;;;;;;10.52;7.18;;;;;;;40.67;17.97;98965.59;5056755;28;20040;-74
2023/06/17 06:59:15;;;;;;;24.70;20.23;;;;;;;41.22;17.69;98963.97;5038678;28;20048;-74
2023/06/17 07:01:40;;;;;;;12.73;9.65;;;;;;;41.95;17.25;98970.59;5055572;28;20055;-74
2023/06/17 07:04:06;;;;;;;9.25;8.18;;;;;;;42.24;16.98;98966.19;5038200;28;20059;-74
2023/06/17 07:06:31;;;;;;;13.00;8.50;;;;;;;42.68;16.36;98960.09;5023503;28;20048;-74
2023/06/17 07:08:59;;;;;;;11.07;9.00;;;;;;;43.26;16.68;98964.06;5040875;28;20232;-74
2023/06/17 07:11:26;;;;;;;10.68;8.88;;;;;;;43.31;16.36;98966.69;5036780;28;20044;-71
2023/06/17 07:13:52;;;;;;;22.50;20.23;;;;;;;43.66;16.18;98967.25;5020180;28;20048;-71
2023/06/17 07:16:17;;;;;;;10.73;9.38;;;;;;;44.04;16.30;98958.63;5036853;28;20046;-74
2023/06/17 07:18:42;;;;;;;14.23;9.98;;;;;;;44.41;16.01;98964.34;5053725;28;20055;-73
2023/06/17 07:21:07;;;;;;;10.52;9.40;;;;;;;44.68;15.68;98963.66;5053800;28;20043;-74
2023/06/17 07:23:32;;;;;;;12.07;9.90;;;;;;;44.95;15.14;98955.69;5036518;28;20395;-72
2023/06/17 07:25:58;;;;;;;13.63;9.38;;;;;;;45.12;14.75;98989.19;5053595;28;20039;-72
2023/06/17 07:28:24;;;;;;;12.05;10.77;;;;;;;44.86;14.58;98986.75;5019425;28;20056;-73
2023/06/17 07:30:49;;;;;;;17.13;11.57;;;;;;;44.80;14.71;98943.19;5036302;28;20048;-74
2023/06/17 07:33:16;;;;;;;12.07;9.27;;;;;;;44.25;14.57;98949.31;5036371;28;20072;-73
2023/06/17 07:35:42;;;;;;;10.25;9.25;;;;;;;44.26;14.88;98953.72;5053701;28;20044;-73
2023/06/17 07:38:07;;;;;;;10.27;9.18;;;;;;;44.64;14.72;98956.25;5021648;28;20426;-76
2023/06/17 07:40:32;;;;;;;10.20;9.25;;;;;;;45.42;14.40;98956.78;5040130;28;20048;-74
2023/06/17 07:42:57;;;;;;;13.70;9.85;;;;;;;46.55;13.59;98959.16;5039978;28;20052;-74
2023/06/17 07:45:22;;;;;;;10.65;9.70;;;;;;;47.67;12.86;98952.88;5040471;28;20466;-75
2023/06/17 07:47:48;;;;;;;12.50;11.30;;;;;;;48.23;13.09;98955.22;5023230;28;20056;-73
2023/06/17 07:50:13;;;;;;;20.02;15.55;;;;;;;48.21;13.19;98952.75;5057253;28;20067;-74
2023/06/17 07:52:38;;;;;;;12.82;11.73;;;;;;;47.56;13.36;98961.16;5039641;28;20133;-71
2023/06/17 07:55:05;;;;;;;12.73;11.07;;;;;;;46.05;13.78;98948.56;5058537;28;20414;-72
2023/06/17 07:57:31;;;;;;;11.38;10.27;;;;;;;44.49;14.61;98960.59;5058320;28;20032;-73
2023/06/17 07:59:57;;;;;;;11.23;10.00;;;;;;;42.53;14.97;98959.88;5058154;28;20406;-72
2023/06/17 08:02:22;;;;;;;9.45;8.45;;;;;;;40.09;16.27;98997.34;5039362;28;20059;-72
2023/06/17 08:04:49;;;;;;;10.02;8.50;;;;;;;37.64;18.44;98967.31;5057987;28;20055;-73
2023/06/17 08:07:15;;;;;;;12.52;8.90;;;;;;;36.01;19.53;98967.63;5058064;28;20070;-71
2023/06/17 08:09:41;;;;;;;11.75;7.85;;;;;;;34.67;20.62;98959.59;5056829;28;20056;-70
2023/06/17 08:12:06;;;;;;;10.48;7.40;;;;;;;33.79;21.64;98961.97;5058583;28;20054;-70
2023/06/17 08:14:32;;;;;;;9.48;7.18;;;;;;;33.31;21.94;98971.59;5057390;28;20527;-71
2023/06/17 08:16:58;;;;;;;11.57;7.95;;;;;;;32.91;22.37;98969.53;5039955;28;20051;-71
2023/06/17 08:19:23;;;;;;;9.82;6.93;;;;;;;32.77;22.55;98959.00;5057662;28;20051;-73
2023/06/17 08:21:49;;;;;;;9.32;7.45;;;;;;;32.79;22.91;98959.56;5040634;28;20044;-72
2023/06/17 08:24:18;;;;;;;15.23;9.10;;;;;;;33.99;22.89;98964.72;5058451;28;20067;-72
2023/06/17 08:26:44;;;;;;;9.30;7.90;;;;;;;35.39;21.35;98960.91;5057670;28;20055;-71
2023/06/17 08:29:15;;;;;;;7.85;7.05;;;;;;;37.40;19.86;98955.41;5058078;28;20524;-72
2023/06/17 08:31:42;;;;;;;9.75;8.18;;;;;;;39.15;18.22;98964.72;5040377;28;20056;-73
2023/06/17 08:34:07;;;;;;;8.52;7.63;;;;;;;40.51;17.32;98960.47;5056490;28;20035;-73
2023/06/17 08:36:33;;;;;;;9.27;8.38;;;;;;;41.90;16.64;98956.72;5057417;28;20044;-73
2023/06/17 08:38:58;;;;;;;9.98;7.93;;;;;;;42.81;16.08;98963.03;5057493;28;20035;-73
2023/06/17 08:41:23;;;;;;;10.18;9.23;;;;;;;42.94;15.31;98956.38;5038847;28;20055;-72
2023/06/17 08:43:51;;;;;;;9.93;8.52;;;;;;;41.29;16.03;98961.53;5021704;28;20048;-71
2023/06/17 08:46:19;;;;;;;9.93;8.55;;;;;;;40.13;17.23;98971.28;5038169;28;20102;-72
2023/06/17 08:48:46;;;;;;;9.20;8.18;;;;;;;40.23;17.57;98975.75;5037905;28;20054;-72
2023/06/17 08:51:12;;;;;;;9.90;8.98;;;;;;;40.76;16.97;98972.06;5038906;28;20058;-73
2023/06/17 08:53:38;;;;;;;12.43;9.13;;;;;;;40.90;16.51;98970.81;5056943;28;20048;-74
2023/06/17 08:56:03;;;;;;;9.50;8.27;;;;;;;40.22;16.99;98974.94;5055598;28;20048;-74
2023/06/17 08:58:28;;;;;;;11.77;9.13;;;;;;;40.34;16.54;98959.56;5055834;28;20410;-75
2023/06/17 09:00:57;;;;;;;14.30;13.00;;;;;;;39.97;17.04;98958.00;5022317;28;20513;-73
2023/06/17 09:03:25;;;;;;;15.77;14.25;;;;;;;39.07;17.61;98959.88;5038248;28;20051;-73
2023/06/17 09:05:53;;;;;;;9.63;8.63;;;;;;;37.70;19.03;98960.50;5039050;28;20035;-73
2023/06/17 09:08:18;;;;;;;10.45;7.97;;;;;;;36.82;19.35;98952.88;5057187;28;20036;-72
2023/06/17 09:10:44;;;;;;;9.50;8.18;;;;;;;36.02;19.88;98947.91;5057185;28;20051;-74
2023/06/17 09:13:10;;;;;;;9.32;8.30;;;;;;;35.45;20.94;98953.38;5021777;28;20040;-74
2023/06/17 09:15:39;;;;;;;8.95;8.02;;;;;;;34.90;20.99;98953.44;5056836;28;20051;-73
2023/06/17 09:18:04;;;;;;;9.73;8.23;;;;;;;34.94;21.05;98937.91;5049603;28;20040;-72
2023/06/17 09:20:32;;;;;;;9.98;8.02;;;;;;;35.72;20.35;98958.44;5038500;28;20056;-75
2023/06/17 09:22:57;;;;;;;9.77;8.77;;;;;;;37.24;19.61;98949.28;5037955;28;20052;-72
2023/06/17 09:25:23;;;;;;;12.40;8.07;;;;;;;39.06;18.58;98961.00;5055353;28;20043;-73
2023/06/17 09:27:54;;;;;;;9.90;9.00;;;;;;;40.42;17.38;98964.34;5055283;28;20533;-74
2023/06/17 09:30:22;;;;;;;10.07;9.10;;;;;;;41.61;16.31;98954.63;5056790;28;20048;-74
2023/06/17 09:32:51;;;;;;;10.15;9.23;;;;;;;42.92;15.87;98958.69;5037657;28;20545;-73
2023/06/17 09:35:18;;;;;;;11.05;9.98;;;;;;;44.72;15.06;98950.50;5038514;28;20040;-73
2023/06/17 09:37:48;;;;;;;11.45;10.45;;;;;;;46.50;13.88;98959.44;5038095;28;20054;-75
2023/06/17 09:40:13;;;;;;;13.02;11.98;;;;;;;47.99;13.41;98960.00;5038211;28;20050;-72
2023/06/17 09:42:39;;;;;;;16.52;15.05;;;;;;;48.23;12.42;98952.38;5056429;28;20044;-72
2023/06/17 09:45:06;;;;;;;13.98;12.88;;;;;;;47.89;12.89;98963.44;5038047;28;20409;-73
2023/06/17 09:47:34;;;;;;;15.75;14.38;;;;;;;46.50;13.45;98958.63;5057016;28;20040;-74
2023/06/17 09:50:11;;;;;;;13.68;12.50;;;;;;;44.37;14.28;98952.97;5029332;28;20427;-75
2023/06/17 09:52:38;;;;;;;11.20;10.23;;;;;;;41.89;15.43;98952.25;5036675;28;20518;-76
2023/06/17 09:55:04;;;;;;;11.15;9.93;;;;;;;40.31;16.44;98949.03;5038052;28;20055;-77
2023/06/17 09:57:34;;;;;;;17.42;11.60;;;;;;;39.87;16.93;98950.72;5026731;28;20041;-75
2023/06/17 10:00:13;;;;;;;33.13;29.80;;;;;;;41.22;16.44;98938.78;5039208;28;20059;-75
2023/06/17 10:02:39;;;;;;;13.80;12.50;;;;;;;43.22;15.67;98929.47;5037838;28;20040;-74
2023/06/17 10:05:10;;;;;;;14.05;11.93;;;;;;;44.42;14.44;98949.13;5020756;28;20433;-76
2023/06/17 10:07:37;;;;;;;12.73;11.48;;;;;;;45.16;14.03;98934.69;5040214;28;20052;-77
2023/06/17 10:10:02;;;;;;;13.27;12.15;;;;;;;46.11;13.71;98944.28;5058329;28;20517;-75
2023/06/17 10:12:31;;;;;;;12.65;11.45;;;;;;;45.98;13.09;98937.09;5055397;28;20035;-78
2023/06/17 10:14:59;;;;;;;12.93;11.93;;;;;;;44.63;13.67;98940.56;5055473;28;20553;-74
2023/06/17 10:17:25;;;;;;;11.63;10.63;;;;;;;42.61;14.88;98951.41;5034341;28;20867;-78
2023/06/17 10:19:52;;;;;;;10.98;10.07;;;;;;;40.61;16.07;98957.38;5044813;28;20055;-76
2023/06/17 10:22:21;;;;;;;13.73;9.55;;;;;;;38.28;17.47;98948.94;5055777;28;20036;-77
2023/06/17 10:24:49;;;;;;;10.88;9.00;;;;;;;36.57;18.96;98950.44;5055948;28;20051;-75
2023/06/17 10:27:15;;;;;;;15.70;9.00;;;;;;;35.18;20.10;98953.84;5056358;28;20549;-75
2023/06/17 10:29:43;;;;;;;10.23;8.55;;;;;;;34.15;21.13;98947.00;5057045;28;20380;-74
2023/06/17 10:32:24;;;;;;;9.52;8.55;;;;;;;33.71;21.64;98957.00;5052161;28;20031;-75
2023/06/17 10:35:05;;;;;;;12.43;8.63;;;;;;;33.29;21.76;98949.78;5055229;28;20048;-74
2023/06/17 10:37:32;;;;;;;11.02;9.30;;;;;;;32.32;22.41;98936.69;5027014;28;20561;-77
2023/06/17 10:40:35;;;;;;;9.60;8.18;;;;;;;32.15;22.74;98949.81;5056401;28;20047;-76
2023/06/17 10:43:00;;;;;;;9.57;8.20;;;;;;;31.39;22.86;98945.31;4941751;28;20049;-75
2023/06/17 10:45:31;;;;;;;11.07;9.13;;;;;;;31.20;24.58;98951.47;4955132;28;20053;-74
2023/06/17 10:48:31;;;;;;;9.95;8.13;;;;;;;31.25;23.60;98946.03;4974013;28;20042;-76
2023/06/17 10:51:00;;;;;;;9.38;8.23;;;;;;;30.83;24.18;98952.13;4953012;28;20050;-76
2023/06/17 10:53:28;;;;;;;10.80;9.68;;;;;;;30.60;25.09;98945.00;4959880;28;20058;-75
2023/06/17 10:55:53;;;;;;;9.52;8.10;;;;;;;30.33;25.27;98939.41;4959493;28;20041;-77
2023/06/17 10:58:18;;;;;;;12.18;8.98;;;;;;;30.21;25.02;98935.09;4957956;28;20045;-76
2023/06/17 11:00:44;;;;;;;9.70;8.15;;;;;;;29.93;25.68;98936.84;4957230;28;20061;-75
2023/06/17 11:03:09;;;;;;;10.88;8.40;;;;;;;29.95;25.50;98936.63;4974986;28;20038;-76
2023/06/17 11:05:38;;;;;;;10.18;8.05;;;;;;;29.84;26.16;98940.28;4962650;28;20054;-75
2023/06/17 11:08:04;;;;;;;12.38;8.27;;;;;;;29.83;25.98;98944.13;4971315;28;20448;-76
2023/06/17 11:10:31;;;;;;;11.20;8.70;;;;;;;29.98;26.07;98941.66;4975369;28;20100;-77
2023/06/17 11:12:56;;;;;;;10.73;8.57;;;;;;;30.21;25.04;98935.09;4959020;28;20061;-77
2023/06/17 11:15:22;;;;;;;9.18;7.90;;;;;;;30.33;24.92;98935.81;4975451;28;20046;-80
2023/06/17 11:17:57;;;;;;;11.18;8.63;;;;;;;30.41;24.93;98934.53;4980145;28;20041;-78
2023/06/17 11:20:23;;;;;;;11.70;7.88;;;;;;;30.54;24.69;98935.03;5026393;28;20422;-77
2023/06/17 11:22:48;;;;;;;9.63;8.60;;;;;;;30.66;24.83;98932.97;5030441;28;20048;-77